sensor_id;sensor_type;location;lat;lon;timestamp;P1;durP1;ratioP1;P2;durP2;ratioP2
74342;SDS011;62767;50.300;8.070;2022-09-03T00:02:15;2.58;;;0.85;;
74342;SDS011;62767;50.300;8.070;2022-09-03T00:10:14;2.95;;;1.40;;
74342;SDS011;62767;50.300;8.070;2022-09-03T00:12:46;2.80;;;1.00;;
74342;SDS011;62767;50.300;8.070;2022-09-03T00:15:21;2.33;;;1.00;;
74342;SDS011;62767;50.300;8.070;2022-09-03T00:20:41;1.80;;;0.88;;
74342;SDS011;62767;50.300;8.070;2022-09-03T00:23:23;1.95;;;1.27;;
74342;SDS011;62767;50.300;8.070;2022-09-03T00:31:28;3.17;;;1.10;;
74342;SDS011;62767;50.300;8.070;2022-09-03T00:33:59;2.00;;;1.00;;
74342;SDS011;62767;50.300;8.070;2022-09-03T00:36:36;2.17;;;1.10;;
74342;SDS011;62767;50.300;8.070;2022-09-03T00:39:16;4.10;;;1.02;;
74342;SDS011;62767;50.300;8.070;2022-09-03T00:55:09;3.03;;;1.10;;
74342;SDS011;62767;50.300;8.070;2022-09-03T01:00:27;3.75;;;1.02;;
74342;SDS011;62767;50.300;8.070;2022-09-03T01:08:38;1.70;;;1.00;;
74342;SDS011;62767;50.300;8.070;2022-09-03T01:12:13;4.45;;;1.17;;
74342;SDS011;62767;50.300;8.070;2022-09-03T01:17:12;1.90;;;1.05;;
74342;SDS011;62767;50.300;8.070;2022-09-03T01:30:42;2.75;;;1.20;;
74342;SDS011;62767;50.300;8.070;2022-09-03T01:33:23;3.03;;;1.15;;
74342;SDS011;62767;50.300;8.070;2022-09-03T01:50:02;2.75;;;1.15;;
74342;SDS011;62767;50.300;8.070;2022-09-03T01:58:23;2.20;;;1.17;;
74342;SDS011;62767;50.300;8.070;2022-09-03T02:00:59;1.65;;;0.90;;
74342;SDS011;62767;50.300;8.070;2022-09-03T02:03:34;1.98;;;1.20;;
74342;SDS011;62767;50.300;8.070;2022-09-03T02:06:03;1.70;;;0.95;;
74342;SDS011;62767;50.300;8.070;2022-09-03T02:08:30;2.97;;;1.00;;
74342;SDS011;62767;50.300;8.070;2022-09-03T02:10:56;6.20;;;1.17;;
74342;SDS011;62767;50.300;8.070;2022-09-03T02:13:30;3.63;;;1.23;;
74342;SDS011;62767;50.300;8.070;2022-09-03T02:16:04;5.22;;;0.93;;
74342;SDS011;62767;50.300;8.070;2022-09-03T02:18:46;2.38;;;1.17;;
74342;SDS011;62767;50.300;8.070;2022-09-03T02:21:17;2.78;;;1.20;;
74342;SDS011;62767;50.300;8.070;2022-09-03T02:23:45;4.15;;;1.10;;
74342;SDS011;62767;50.300;8.070;2022-09-03T02:28:40;3.10;;;1.08;;
74342;SDS011;62767;50.300;8.070;2022-09-03T02:31:06;6.38;;;1.30;;
74342;SDS011;62767;50.300;8.070;2022-09-03T02:33:34;2.17;;;1.02;;
74342;SDS011;62767;50.300;8.070;2022-09-03T02:36:03;3.95;;;1.05;;
74342;SDS011;62767;50.300;8.070;2022-09-03T02:38:31;2.72;;;1.02;;
74342;SDS011;62767;50.300;8.070;2022-09-03T02:40:57;2.38;;;1.00;;
74342;SDS011;62767;50.300;8.070;2022-09-03T02:45:54;4.07;;;1.17;;
74342;SDS011;62767;50.300;8.070;2022-09-03T02:48:25;9.25;;;1.65;;
74342;SDS011;62767;50.300;8.070;2022-09-03T02:50:50;4.80;;;1.27;;
74342;SDS011;62767;50.300;8.070;2022-09-03T02:53:16;2.03;;;1.00;;
74342;SDS011;62767;50.300;8.070;2022-09-03T02:55:42;4.68;;;1.35;;
74342;SDS011;62767;50.300;8.070;2022-09-03T02:58:08;4.82;;;1.20;;
74342;SDS011;62767;50.300;8.070;2022-09-03T03:00:34;2.40;;;1.00;;
74342;SDS011;62767;50.300;8.070;2022-09-03T03:08:02;3.50;;;1.10;;
74342;SDS011;62767;50.300;8.070;2022-09-03T03:10:28;3.28;;;1.00;;
74342;SDS011;62767;50.300;8.070;2022-09-03T03:12:53;4.72;;;1.17;;
74342;SDS011;62767;50.300;8.070;2022-09-03T03:15:19;2.78;;;0.90;;
74342;SDS011;62767;50.300;8.070;2022-09-03T03:17:44;4.15;;;1.20;;
74342;SDS011;62767;50.300;8.070;2022-09-03T03:20:10;2.85;;;1.08;;
74342;SDS011;62767;50.300;8.070;2022-09-03T03:22:36;6.50;;;1.33;;
74342;SDS011;62767;50.300;8.070;2022-09-03T03:25:02;1.50;;;0.90;;
74342;SDS011;62767;50.300;8.070;2022-09-03T03:27:29;2.13;;;1.20;;
74342;SDS011;62767;50.300;8.070;2022-09-03T03:29:55;2.85;;;1.48;;
74342;SDS011;62767;50.300;8.070;2022-09-03T03:32:22;3.33;;;1.10;;
74342;SDS011;62767;50.300;8.070;2022-09-03T03:34:48;1.63;;;1.00;;
74342;SDS011;62767;50.300;8.070;2022-09-03T03:37:13;1.67;;;1.00;;
74342;SDS011;62767;50.300;8.070;2022-09-03T03:39:39;2.65;;;1.00;;
74342;SDS011;62767;50.300;8.070;2022-09-03T03:42:05;4.47;;;1.10;;
74342;SDS011;62767;50.300;8.070;2022-09-03T03:44:30;3.55;;;1.10;;
74342;SDS011;62767;50.300;8.070;2022-09-03T03:46:56;2.50;;;1.08;;
74342;SDS011;62767;50.300;8.070;2022-09-03T03:49:21;2.83;;;1.20;;
74342;SDS011;62767;50.300;8.070;2022-09-03T03:51:47;2.67;;;1.17;;
74342;SDS011;62767;50.300;8.070;2022-09-03T03:54:13;3.08;;;1.13;;
74342;SDS011;62767;50.300;8.070;2022-09-03T03:56:38;2.65;;;1.10;;
74342;SDS011;62767;50.300;8.070;2022-09-03T03:59:04;3.85;;;1.38;;
74342;SDS011;62767;50.300;8.070;2022-09-03T04:01:31;2.72;;;1.10;;
74342;SDS011;62767;50.300;8.070;2022-09-03T04:03:57;5.65;;;1.10;;
74342;SDS011;62767;50.300;8.070;2022-09-03T04:06:24;4.68;;;1.48;;
74342;SDS011;62767;50.300;8.070;2022-09-03T04:08:50;1.98;;;1.05;;
74342;SDS011;62767;50.300;8.070;2022-09-03T04:11:17;3.92;;;1.40;;
74342;SDS011;62767;50.300;8.070;2022-09-03T04:13:44;10.55;;;1.20;;
74342;SDS011;62767;50.300;8.070;2022-09-03T04:16:12;3.25;;;1.10;;
74342;SDS011;62767;50.300;8.070;2022-09-03T04:18:39;5.95;;;1.23;;
74342;SDS011;62767;50.300;8.070;2022-09-03T04:21:10;3.85;;;1.38;;
74342;SDS011;62767;50.300;8.070;2022-09-03T04:23:38;2.10;;;1.13;;
74342;SDS011;62767;50.300;8.070;2022-09-03T04:26:08;1.83;;;1.10;;
74342;SDS011;62767;50.300;8.070;2022-09-03T04:28:36;2.63;;;1.00;;
74342;SDS011;62767;50.300;8.070;2022-09-03T04:31:02;3.47;;;1.10;;
74342;SDS011;62767;50.300;8.070;2022-09-03T04:33:30;1.75;;;1.10;;
74342;SDS011;62767;50.300;8.070;2022-09-03T04:36:01;3.70;;;1.20;;
74342;SDS011;62767;50.300;8.070;2022-09-03T04:38:30;6.68;;;1.42;;
74342;SDS011;62767;50.300;8.070;2022-09-03T04:40:57;4.97;;;1.20;;
74342;SDS011;62767;50.300;8.070;2022-09-03T04:43:24;2.97;;;1.10;;
74342;SDS011;62767;50.300;8.070;2022-09-03T04:45:54;5.07;;;1.23;;
74342;SDS011;62767;50.300;8.070;2022-09-03T04:48:21;3.08;;;1.20;;
74342;SDS011;62767;50.300;8.070;2022-09-03T04:50:47;2.42;;;1.02;;
74342;SDS011;62767;50.300;8.070;2022-09-03T04:53:12;5.10;;;1.48;;
74342;SDS011;62767;50.300;8.070;2022-09-03T04:55:38;9.80;;;2.03;;
74342;SDS011;62767;50.300;8.070;2022-09-03T04:58:04;3.22;;;1.33;;
74342;SDS011;62767;50.300;8.070;2022-09-03T05:00:32;2.90;;;1.20;;
74342;SDS011;62767;50.300;8.070;2022-09-03T05:03:00;3.95;;;1.00;;
74342;SDS011;62767;50.300;8.070;2022-09-03T05:05:27;1.95;;;1.13;;
74342;SDS011;62767;50.300;8.070;2022-09-03T05:07:56;1.98;;;0.90;;
74342;SDS011;62767;50.300;8.070;2022-09-03T05:10:22;1.73;;;1.00;;
74342;SDS011;62767;50.300;8.070;2022-09-03T05:13:01;5.03;;;1.10;;
74342;SDS011;62767;50.300;8.070;2022-09-03T05:15:29;7.65;;;1.10;;
74342;SDS011;62767;50.300;8.070;2022-09-03T05:20:22;2.83;;;1.20;;
74342;SDS011;62767;50.300;8.070;2022-09-03T05:22:47;6.32;;;1.20;;
74342;SDS011;62767;50.300;8.070;2022-09-03T05:25:13;3.55;;;1.15;;
74342;SDS011;62767;50.300;8.070;2022-09-03T05:27:39;3.60;;;1.38;;
74342;SDS011;62767;50.300;8.070;2022-09-03T05:30:04;7.30;;;1.30;;
74342;SDS011;62767;50.300;8.070;2022-09-03T05:32:31;9.00;;;1.10;;
74342;SDS011;62767;50.300;8.070;2022-09-03T05:34:57;2.50;;;1.20;;
74342;SDS011;62767;50.300;8.070;2022-09-03T05:37:22;5.25;;;1.60;;
74342;SDS011;62767;50.300;8.070;2022-09-03T05:39:48;4.63;;;1.10;;
74342;SDS011;62767;50.300;8.070;2022-09-03T05:42:13;2.13;;;1.13;;
74342;SDS011;62767;50.300;8.070;2022-09-03T05:44:39;1.90;;;1.00;;
74342;SDS011;62767;50.300;8.070;2022-09-03T05:47:05;3.35;;;1.00;;
74342;SDS011;62767;50.300;8.070;2022-09-03T05:49:31;4.95;;;1.13;;
74342;SDS011;62767;50.300;8.070;2022-09-03T05:51:56;3.83;;;1.13;;
74342;SDS011;62767;50.300;8.070;2022-09-03T05:54:22;5.00;;;1.10;;
74342;SDS011;62767;50.300;8.070;2022-09-03T05:56:48;2.03;;;0.90;;
74342;SDS011;62767;50.300;8.070;2022-09-03T05:59:14;2.53;;;1.10;;
74342;SDS011;62767;50.300;8.070;2022-09-03T06:01:40;1.85;;;1.02;;
74342;SDS011;62767;50.300;8.070;2022-09-03T06:06:34;6.32;;;1.23;;
74342;SDS011;62767;50.300;8.070;2022-09-03T06:09:05;7.80;;;1.10;;
74342;SDS011;62767;50.300;8.070;2022-09-03T06:11:32;2.67;;;1.08;;
74342;SDS011;62767;50.300;8.070;2022-09-03T06:14:01;7.90;;;1.20;;
74342;SDS011;62767;50.300;8.070;2022-09-03T06:16:31;2.47;;;1.00;;
74342;SDS011;62767;50.300;8.070;2022-09-03T06:18:59;1.75;;;0.80;;
74342;SDS011;62767;50.300;8.070;2022-09-03T06:21:25;4.90;;;1.08;;
74342;SDS011;62767;50.300;8.070;2022-09-03T06:23:51;3.05;;;1.20;;
74342;SDS011;62767;50.300;8.070;2022-09-03T06:26:20;2.92;;;1.23;;
74342;SDS011;62767;50.300;8.070;2022-09-03T06:28:47;5.35;;;1.20;;
74342;SDS011;62767;50.300;8.070;2022-09-03T06:31:17;2.08;;;1.08;;
74342;SDS011;62767;50.300;8.070;2022-09-03T06:33:44;2.17;;;0.90;;
74342;SDS011;62767;50.300;8.070;2022-09-03T06:36:21;2.55;;;1.08;;
74342;SDS011;62767;50.300;8.070;2022-09-03T06:38:50;2.50;;;1.00;;
74342;SDS011;62767;50.300;8.070;2022-09-03T06:41:21;7.10;;;1.30;;
74342;SDS011;62767;50.300;8.070;2022-09-03T06:43:52;4.05;;;1.73;;
74342;SDS011;62767;50.300;8.070;2022-09-03T06:46:21;3.42;;;1.45;;
74342;SDS011;62767;50.300;8.070;2022-09-03T06:48:48;1.95;;;1.10;;
74342;SDS011;62767;50.300;8.070;2022-09-03T06:51:16;5.32;;;1.30;;
74342;SDS011;62767;50.300;8.070;2022-09-03T06:53:52;3.15;;;1.50;;
74342;SDS011;62767;50.300;8.070;2022-09-03T06:56:23;3.67;;;1.30;;
74342;SDS011;62767;50.300;8.070;2022-09-03T06:58:55;1.88;;;0.88;;
74342;SDS011;62767;50.300;8.070;2022-09-03T07:01:23;4.80;;;1.25;;
74342;SDS011;62767;50.300;8.070;2022-09-03T07:03:54;1.48;;;0.95;;
74342;SDS011;62767;50.300;8.070;2022-09-03T07:06:21;4.10;;;1.02;;
74342;SDS011;62767;50.300;8.070;2022-09-03T07:08:49;3.38;;;1.38;;
74342;SDS011;62767;50.300;8.070;2022-09-03T07:11:16;4.40;;;1.10;;
74342;SDS011;62767;50.300;8.070;2022-09-03T07:13:45;2.90;;;1.30;;
74342;SDS011;62767;50.300;8.070;2022-09-03T07:16:16;3.47;;;1.05;;
74342;SDS011;62767;50.300;8.070;2022-09-03T07:18:53;4.45;;;1.10;;
74342;SDS011;62767;50.300;8.070;2022-09-03T07:23:50;4.35;;;1.40;;
74342;SDS011;62767;50.300;8.070;2022-09-03T07:26:17;2.63;;;1.23;;
74342;SDS011;62767;50.300;8.070;2022-09-03T07:28:45;2.17;;;1.13;;
74342;SDS011;62767;50.300;8.070;2022-09-03T07:31:12;3.50;;;1.30;;
74342;SDS011;62767;50.300;8.070;2022-09-03T07:33:40;2.58;;;1.40;;
74342;SDS011;62767;50.300;8.070;2022-09-03T07:36:07;4.60;;;1.48;;
74342;SDS011;62767;50.300;8.070;2022-09-03T07:38:35;3.38;;;1.48;;
74342;SDS011;62767;50.300;8.070;2022-09-03T07:41:02;3.38;;;1.50;;
74342;SDS011;62767;50.300;8.070;2022-09-03T07:43:35;1.98;;;0.90;;
74342;SDS011;62767;50.300;8.070;2022-09-03T07:46:04;3.45;;;1.33;;
74342;SDS011;62767;50.300;8.070;2022-09-03T07:48:40;1.70;;;0.95;;
74342;SDS011;62767;50.300;8.070;2022-09-03T07:51:06;10.32;;;3.97;;
74342;SDS011;62767;50.300;8.070;2022-09-03T07:53:33;3.47;;;1.15;;
74342;SDS011;62767;50.300;8.070;2022-09-03T07:56:04;1.92;;;1.00;;
74342;SDS011;62767;50.300;8.070;2022-09-03T07:58:31;2.30;;;0.90;;
74342;SDS011;62767;50.300;8.070;2022-09-03T08:01:02;1.80;;;0.98;;
74342;SDS011;62767;50.300;8.070;2022-09-03T08:03:29;1.92;;;1.08;;
74342;SDS011;62767;50.300;8.070;2022-09-03T08:05:58;3.88;;;0.88;;
74342;SDS011;62767;50.300;8.070;2022-09-03T08:08:28;2.13;;;1.20;;
74342;SDS011;62767;50.300;8.070;2022-09-03T08:13:27;6.38;;;1.27;;
74342;SDS011;62767;50.300;8.070;2022-09-03T08:15:53;4.85;;;1.75;;
74342;SDS011;62767;50.300;8.070;2022-09-03T08:20:47;3.90;;;1.17;;
74342;SDS011;62767;50.300;8.070;2022-09-03T08:23:13;2.65;;;1.20;;
74342;SDS011;62767;50.300;8.070;2022-09-03T08:25:39;3.33;;;1.15;;
74342;SDS011;62767;50.300;8.070;2022-09-03T08:28:04;3.25;;;1.10;;
74342;SDS011;62767;50.300;8.070;2022-09-03T08:30:30;2.17;;;1.15;;
74342;SDS011;62767;50.300;8.070;2022-09-03T08:32:55;2.53;;;1.33;;
74342;SDS011;62767;50.300;8.070;2022-09-03T08:35:22;10.05;;;1.40;;
74342;SDS011;62767;50.300;8.070;2022-09-03T08:37:48;1.73;;;1.15;;
74342;SDS011;62767;50.300;8.070;2022-09-03T08:40:16;3.20;;;1.10;;
74342;SDS011;62767;50.300;8.070;2022-09-03T08:42:45;6.28;;;1.70;;
74342;SDS011;62767;50.300;8.070;2022-09-03T08:45:21;1.48;;;1.00;;
74342;SDS011;62767;50.300;8.070;2022-09-03T08:48:29;3.92;;;1.40;;
74342;SDS011;62767;50.300;8.070;2022-09-03T08:50:47;3.15;;;1.20;;
74342;SDS011;62767;50.300;8.070;2022-09-03T08:56:08;3.20;;;1.40;;
74342;SDS011;62767;50.300;8.070;2022-09-03T09:20:51;1.85;;;1.05;;
74342;SDS011;62767;50.300;8.070;2022-09-03T09:23:34;7.65;;;1.27;;
74342;SDS011;62767;50.300;8.070;2022-09-03T09:26:05;7.00;;;1.75;;
74342;SDS011;62767;50.300;8.070;2022-09-03T09:28:36;6.22;;;1.20;;
74342;SDS011;62767;50.300;8.070;2022-09-03T09:31:03;5.13;;;1.20;;
74342;SDS011;62767;50.300;8.070;2022-09-03T09:33:32;3.20;;;1.10;;
74342;SDS011;62767;50.300;8.070;2022-09-03T09:36:05;5.32;;;1.33;;
74342;SDS011;62767;50.300;8.070;2022-09-03T09:38:35;5.85;;;1.30;;
74342;SDS011;62767;50.300;8.070;2022-09-03T09:41:15;2.40;;;0.95;;
74342;SDS011;62767;50.300;8.070;2022-09-03T09:43:45;5.82;;;1.30;;
74342;SDS011;62767;50.300;8.070;2022-09-03T09:46:24;3.30;;;1.08;;
74342;SDS011;62767;50.300;8.070;2022-09-03T09:48:58;2.85;;;1.20;;
74342;SDS011;62767;50.300;8.070;2022-09-03T09:51:27;1.80;;;1.00;;
74342;SDS011;62767;50.300;8.070;2022-09-03T09:54:02;2.88;;;1.05;;
74342;SDS011;62767;50.300;8.070;2022-09-03T09:56:36;5.63;;;1.20;;
74342;SDS011;62767;50.300;8.070;2022-09-03T09:59:03;1.73;;;0.90;;
74342;SDS011;62767;50.300;8.070;2022-09-03T10:01:33;2.85;;;1.00;;
74342;SDS011;62767;50.300;8.070;2022-09-03T10:06:53;2.75;;;1.00;;
74342;SDS011;62767;50.300;8.070;2022-09-03T10:09:24;3.22;;;1.40;;
74342;SDS011;62767;50.300;8.070;2022-09-03T10:11:57;3.05;;;0.98;;
74342;SDS011;62767;50.300;8.070;2022-09-03T10:14:35;2.60;;;1.00;;
74342;SDS011;62767;50.300;8.070;2022-09-03T10:17:16;1.98;;;1.10;;
74342;SDS011;62767;50.300;8.070;2022-09-03T10:19:59;3.67;;;1.23;;
74342;SDS011;62767;50.300;8.070;2022-09-03T10:22:55;2.75;;;1.45;;
74342;SDS011;62767;50.300;8.070;2022-09-03T10:25:26;1.30;;;0.82;;
74342;SDS011;62767;50.300;8.070;2022-09-03T10:28:00;3.13;;;1.30;;
74342;SDS011;62767;50.300;8.070;2022-09-03T10:30:27;2.90;;;1.20;;
74342;SDS011;62767;50.300;8.070;2022-09-03T10:33:00;2.03;;;1.15;;
74342;SDS011;62767;50.300;8.070;2022-09-03T10:35:36;1.15;;;0.98;;
74342;SDS011;62767;50.300;8.070;2022-09-03T10:38:12;3.08;;;1.13;;
74342;SDS011;62767;50.300;8.070;2022-09-03T10:51:25;3.08;;;1.20;;
74342;SDS011;62767;50.300;8.070;2022-09-03T11:02:20;4.00;;;1.20;;
74342;SDS011;62767;50.300;8.070;2022-09-03T11:07:45;4.18;;;1.40;;
74342;SDS011;62767;50.300;8.070;2022-09-03T11:10:20;4.28;;;0.93;;
74342;SDS011;62767;50.300;8.070;2022-09-03T11:17:58;3.35;;;1.10;;
74342;SDS011;62767;50.300;8.070;2022-09-03T11:20:32;3.08;;;1.20;;
74342;SDS011;62767;50.300;8.070;2022-09-03T11:23:00;1.05;;;0.80;;
74342;SDS011;62767;50.300;8.070;2022-09-03T11:25:33;2.60;;;1.10;;
74342;SDS011;62767;50.300;8.070;2022-09-03T11:28:22;2.20;;;1.20;;
74342;SDS011;62767;50.300;8.070;2022-09-03T11:33:40;2.08;;;1.10;;
74342;SDS011;62767;50.300;8.070;2022-09-03T11:36:12;3.30;;;1.10;;
74342;SDS011;62767;50.300;8.070;2022-09-03T11:38:46;2.58;;;1.10;;
74342;SDS011;62767;50.300;8.070;2022-09-03T11:41:13;2.05;;;1.02;;
74342;SDS011;62767;50.300;8.070;2022-09-03T11:43:50;1.25;;;0.88;;
74342;SDS011;62767;50.300;8.070;2022-09-03T11:48:48;2.72;;;0.90;;
74342;SDS011;62767;50.300;8.070;2022-09-03T11:51:37;0.82;;;0.70;;
74342;SDS011;62767;50.300;8.070;2022-09-03T11:56:38;2.55;;;1.15;;
74342;SDS011;62767;50.300;8.070;2022-09-03T12:01:48;3.35;;;0.85;;
74342;SDS011;62767;50.300;8.070;2022-09-03T12:04:22;1.98;;;0.93;;
74342;SDS011;62767;50.300;8.070;2022-09-03T12:09:28;3.92;;;1.10;;
74342;SDS011;62767;50.300;8.070;2022-09-03T12:14:55;2.40;;;1.23;;
74342;SDS011;62767;50.300;8.070;2022-09-03T12:17:32;3.75;;;1.00;;
74342;SDS011;62767;50.300;8.070;2022-09-03T12:20:11;3.28;;;0.93;;
74342;SDS011;62767;50.300;8.070;2022-09-03T12:22:39;2.10;;;1.10;;
74342;SDS011;62767;50.300;8.070;2022-09-03T12:25:08;1.58;;;0.90;;
74342;SDS011;62767;50.300;8.070;2022-09-03T12:27:36;2.75;;;1.02;;
74342;SDS011;62767;50.300;8.070;2022-09-03T12:30:02;3.25;;;1.30;;
74342;SDS011;62767;50.300;8.070;2022-09-03T12:32:31;1.63;;;1.00;;
74342;SDS011;62767;50.300;8.070;2022-09-03T12:37:41;5.05;;;1.23;;
74342;SDS011;62767;50.300;8.070;2022-09-03T12:40:17;9.02;;;1.27;;
74342;SDS011;62767;50.300;8.070;2022-09-03T12:42:45;1.80;;;0.90;;
74342;SDS011;62767;50.300;8.070;2022-09-03T12:45:12;2.13;;;0.90;;
74342;SDS011;62767;50.300;8.070;2022-09-03T12:47:40;3.20;;;1.10;;
74342;SDS011;62767;50.300;8.070;2022-09-03T12:50:09;2.15;;;1.08;;
74342;SDS011;62767;50.300;8.070;2022-09-03T12:52:50;2.08;;;1.08;;
74342;SDS011;62767;50.300;8.070;2022-09-03T12:55:38;2.05;;;1.23;;
74342;SDS011;62767;50.300;8.070;2022-09-03T13:00:39;1.15;;;0.88;;
74342;SDS011;62767;50.300;8.070;2022-09-03T13:05:44;1.35;;;0.90;;
74342;SDS011;62767;50.300;8.070;2022-09-03T13:08:14;5.35;;;1.30;;
74342;SDS011;62767;50.300;8.070;2022-09-03T13:10:58;4.00;;;1.27;;
74342;SDS011;62767;50.300;8.070;2022-09-03T13:13:32;3.22;;;1.10;;
74342;SDS011;62767;50.300;8.070;2022-09-03T13:21:37;1.85;;;1.10;;
74342;SDS011;62767;50.300;8.070;2022-09-03T13:29:54;2.05;;;1.20;;
74342;SDS011;62767;50.300;8.070;2022-09-03T13:34:53;5.32;;;1.30;;
74342;SDS011;62767;50.300;8.070;2022-09-03T13:40:02;3.78;;;1.08;;
74342;SDS011;62767;50.300;8.070;2022-09-03T13:42:53;2.90;;;1.00;;
74342;SDS011;62767;50.300;8.070;2022-09-03T13:45:37;4.25;;;1.10;;
74342;SDS011;62767;50.300;8.070;2022-09-03T13:48:48;7.25;;;1.40;;
74342;SDS011;62767;50.300;8.070;2022-09-03T13:51:26;4.88;;;1.00;;
74342;SDS011;62767;50.300;8.070;2022-09-03T13:54:17;2.53;;;1.25;;
74342;SDS011;62767;50.300;8.070;2022-09-03T14:05:33;11.10;;;1.30;;
74342;SDS011;62767;50.300;8.070;2022-09-03T14:08:11;30.35;;;2.10;;
74342;SDS011;62767;50.300;8.070;2022-09-03T14:10:59;12.85;;;1.50;;
74342;SDS011;62767;50.300;8.070;2022-09-03T14:13:54;12.10;;;2.33;;
74342;SDS011;62767;50.300;8.070;2022-09-03T14:19:04;4.15;;;1.10;;
74342;SDS011;62767;50.300;8.070;2022-09-03T14:22:00;15.43;;;2.15;;
74342;SDS011;62767;50.300;8.070;2022-09-03T14:24:50;13.02;;;1.80;;
74342;SDS011;62767;50.300;8.070;2022-09-03T14:27:24;8.98;;;1.30;;
74342;SDS011;62767;50.300;8.070;2022-09-03T14:29:59;7.32;;;1.20;;
74342;SDS011;62767;50.300;8.070;2022-09-03T14:42:06;3.75;;;1.20;;
74342;SDS011;62767;50.300;8.070;2022-09-03T14:47:00;5.80;;;1.20;;
74342;SDS011;62767;50.300;8.070;2022-09-03T14:58:42;3.97;;;1.20;;
74342;SDS011;62767;50.300;8.070;2022-09-03T15:06:17;8.32;;;1.20;;
74342;SDS011;62767;50.300;8.070;2022-09-03T15:11:31;5.75;;;1.35;;
74342;SDS011;62767;50.300;8.070;2022-09-03T15:14:09;4.85;;;1.60;;
74342;SDS011;62767;50.300;8.070;2022-09-03T15:17:00;7.53;;;1.40;;
74342;SDS011;62767;50.300;8.070;2022-09-03T15:19:50;12.30;;;1.88;;
74342;SDS011;62767;50.300;8.070;2022-09-03T15:31:44;4.47;;;1.70;;
74342;SDS011;62767;50.300;8.070;2022-09-03T15:34:39;12.70;;;1.38;;
74342;SDS011;62767;50.300;8.070;2022-09-03T15:37:20;7.68;;;1.95;;
74342;SDS011;62767;50.300;8.070;2022-09-03T15:40:02;10.18;;;2.00;;
74342;SDS011;62767;50.300;8.070;2022-09-03T15:42:32;23.98;;;1.75;;
74342;SDS011;62767;50.300;8.070;2022-09-03T15:45:05;10.38;;;1.83;;
74342;SDS011;62767;50.300;8.070;2022-09-03T15:50:14;19.10;;;2.10;;
74342;SDS011;62767;50.300;8.070;2022-09-03T15:52:54;51.55;;;3.58;;
74342;SDS011;62767;50.300;8.070;2022-09-03T15:55:38;18.13;;;1.48;;
74342;SDS011;62767;50.300;8.070;2022-09-03T16:01:00;9.48;;;1.42;;
74342;SDS011;62767;50.300;8.070;2022-09-03T16:03:32;8.73;;;1.92;;
74342;SDS011;62767;50.300;8.070;2022-09-03T16:06:46;15.13;;;1.52;;
74342;SDS011;62767;50.300;8.070;2022-09-03T16:11:56;43.08;;;3.20;;
74342;SDS011;62767;50.300;8.070;2022-09-03T16:14:42;39.30;;;3.03;;
74342;SDS011;62767;50.300;8.070;2022-09-03T16:17:30;29.30;;;2.35;;
74342;SDS011;62767;50.300;8.070;2022-09-03T16:20:05;24.88;;;2.17;;
74342;SDS011;62767;50.300;8.070;2022-09-03T16:25:56;10.60;;;1.52;;
74342;SDS011;62767;50.300;8.070;2022-09-03T16:42:30;14.05;;;1.90;;
74342;SDS011;62767;50.300;8.070;2022-09-03T16:45:17;18.70;;;1.92;;
74342;SDS011;62767;50.300;8.070;2022-09-03T16:50:54;27.30;;;2.00;;
74342;SDS011;62767;50.300;8.070;2022-09-03T17:02:11;10.10;;;1.88;;
74342;SDS011;62767;50.300;8.070;2022-09-03T17:04:53;8.25;;;1.40;;
74342;SDS011;62767;50.300;8.070;2022-09-03T17:15:55;13.98;;;1.80;;
74342;SDS011;62767;50.300;8.070;2022-09-03T17:18:25;17.73;;;2.08;;
74342;SDS011;62767;50.300;8.070;2022-09-03T17:24:27;9.63;;;1.52;;
74342;SDS011;62767;50.300;8.070;2022-09-03T17:41:23;1.90;;;1.40;;
74342;SDS011;62767;50.300;8.070;2022-09-03T17:46:38;4.22;;;1.58;;
74342;SDS011;62767;50.300;8.070;2022-09-03T17:49:08;5.18;;;1.42;;
74342;SDS011;62767;50.300;8.070;2022-09-03T17:51:48;5.95;;;1.40;;
74342;SDS011;62767;50.300;8.070;2022-09-03T18:05:18;4.25;;;1.42;;
74342;SDS011;62767;50.300;8.070;2022-09-03T18:16:17;16.50;;;1.95;;
74342;SDS011;62767;50.300;8.070;2022-09-03T18:18:51;20.75;;;2.35;;
74342;SDS011;62767;50.300;8.070;2022-09-03T18:21:23;11.25;;;2.28;;
74342;SDS011;62767;50.300;8.070;2022-09-03T18:30:13;7.65;;;1.83;;
74342;SDS011;62767;50.300;8.070;2022-09-03T18:32:59;8.82;;;2.22;;
74342;SDS011;62767;50.300;8.070;2022-09-03T18:35:44;11.30;;;2.78;;
74342;SDS011;62767;50.300;8.070;2022-09-03T18:38:32;8.90;;;3.05;;
74342;SDS011;62767;50.300;8.070;2022-09-03T19:09:35;5.43;;;1.80;;
74342;SDS011;62767;50.300;8.070;2022-09-03T19:12:43;8.95;;;1.92;;
74342;SDS011;62767;50.300;8.070;2022-09-03T19:15:31;25.23;;;2.85;;
74342;SDS011;62767;50.300;8.070;2022-09-03T19:18:30;4.00;;;1.60;;
74342;SDS011;62767;50.300;8.070;2022-09-03T19:24:28;5.50;;;2.20;;
74342;SDS011;62767;50.300;8.070;2022-09-03T19:30:07;4.38;;;1.50;;
74342;SDS011;62767;50.300;8.070;2022-09-03T19:38:48;5.30;;;1.83;;
74342;SDS011;62767;50.300;8.070;2022-09-03T19:41:38;3.53;;;1.20;;
74342;SDS011;62767;50.300;8.070;2022-09-03T19:51:10;5.57;;;3.25;;
74342;SDS011;62767;50.300;8.070;2022-09-03T19:54:05;2.97;;;1.65;;
74342;SDS011;62767;50.300;8.070;2022-09-03T19:56:53;4.72;;;1.80;;
74342;SDS011;62767;50.300;8.070;2022-09-03T19:59:40;5.25;;;2.00;;
74342;SDS011;62767;50.300;8.070;2022-09-03T20:02:37;4.35;;;1.80;;
74342;SDS011;62767;50.300;8.070;2022-09-03T20:05:22;3.20;;;1.77;;
74342;SDS011;62767;50.300;8.070;2022-09-03T20:08:07;2.83;;;1.60;;
74342;SDS011;62767;50.300;8.070;2022-09-03T20:10:54;4.47;;;2.33;;
74342;SDS011;62767;50.300;8.070;2022-09-03T20:13:21;7.32;;;3.50;;
74342;SDS011;62767;50.300;8.070;2022-09-03T20:18:41;7.22;;;3.47;;
74342;SDS011;62767;50.300;8.070;2022-09-03T20:21:22;2.75;;;1.60;;
74342;SDS011;62767;50.300;8.070;2022-09-03T20:26:30;2.25;;;1.30;;
74342;SDS011;62767;50.300;8.070;2022-09-03T20:45:01;3.63;;;1.90;;
74342;SDS011;62767;50.300;8.070;2022-09-03T20:51:28;5.18;;;1.63;;
74342;SDS011;62767;50.300;8.070;2022-09-03T21:01:33;1.65;;;1.20;;
74342;SDS011;62767;50.300;8.070;2022-09-03T21:07:07;2.55;;;1.23;;
74342;SDS011;62767;50.300;8.070;2022-09-03T21:23:45;2.88;;;1.15;;
74342;SDS011;62767;50.300;8.070;2022-09-03T21:26:16;2.35;;;1.17;;
74342;SDS011;62767;50.300;8.070;2022-09-03T21:31:34;1.58;;;0.85;;
74342;SDS011;62767;50.300;8.070;2022-09-03T21:34:08;1.75;;;1.08;;
74342;SDS011;62767;50.300;8.070;2022-09-03T21:36:41;1.10;;;1.00;;
74342;SDS011;62767;50.300;8.070;2022-09-03T21:39:09;2.05;;;1.13;;
74342;SDS011;62767;50.300;8.070;2022-09-03T21:41:47;1.63;;;1.10;;
74342;SDS011;62767;50.300;8.070;2022-09-03T21:44:36;2.92;;;1.23;;
74342;SDS011;62767;50.300;8.070;2022-09-03T21:47:04;3.08;;;1.02;;
74342;SDS011;62767;50.300;8.070;2022-09-03T21:50:17;1.25;;;1.00;;
74342;SDS011;62767;50.300;8.070;2022-09-03T21:52:38;2.75;;;1.15;;
74342;SDS011;62767;50.300;8.070;2022-09-03T21:55:19;1.35;;;0.88;;
74342;SDS011;62767;50.300;8.070;2022-09-03T21:57:51;1.38;;;1.08;;
74342;SDS011;62767;50.300;8.070;2022-09-03T22:00:27;3.45;;;1.02;;
74342;SDS011;62767;50.300;8.070;2022-09-03T22:02:59;1.05;;;0.90;;
74342;SDS011;62767;50.300;8.070;2022-09-03T22:05:32;1.67;;;1.08;;
74342;SDS011;62767;50.300;8.070;2022-09-03T22:11:02;2.90;;;1.40;;
74342;SDS011;62767;50.300;8.070;2022-09-03T22:18:55;1.63;;;0.90;;
74342;SDS011;62767;50.300;8.070;2022-09-03T22:21:40;1.70;;;1.17;;
74342;SDS011;62767;50.300;8.070;2022-09-03T22:24:29;1.85;;;1.17;;
74342;SDS011;62767;50.300;8.070;2022-09-03T22:27:04;2.28;;;1.10;;
74342;SDS011;62767;50.300;8.070;2022-09-03T22:35:00;2.47;;;1.20;;
74342;SDS011;62767;50.300;8.070;2022-09-03T22:43:39;5.60;;;1.40;;
74342;SDS011;62767;50.300;8.070;2022-09-03T22:46:26;1.30;;;1.08;;
74342;SDS011;62767;50.300;8.070;2022-09-03T22:51:55;1.50;;;1.10;;